sensor_id;sensor_type;location;lat;lon;timestamp;pressure;altitude;pressure_sealevel;temperature;humidity
34696;BME280;20918;51.138;17.370;2023-06-26T00:02:07;100292.69;;;14.08;73.54
34696;BME280;20918;51.138;17.370;2023-06-26T00:05:08;100287.73;;;14.06;73.68
34696;BME280;20918;51.138;17.370;2023-06-26T00:08:09;100285.48;;;14.04;73.69
34696;BME280;20918;51.138;17.370;2023-06-26T00:11:09;100283.43;;;14.02;73.66
34696;BME280;20918;51.138;17.370;2023-06-26T00:14:10;100281.51;;;13.99;73.85
34696;BME280;20918;51.138;17.370;2023-06-26T00:17:11;100282.44;;;13.94;74.03
34696;BME280;20918;51.138;17.370;2023-06-26T00:20:12;100285.52;;;13.89;74.03
34696;BME280;20918;51.138;17.370;2023-06-26T00:23:17;100285.23;;;13.82;74.35
34696;BME280;20918;51.138;17.370;2023-06-26T00:26:38;100283.51;;;13.79;74.75
34696;BME280;20918;51.138;17.370;2023-06-26T00:29:39;100282.11;;;13.76;74.95
34696;BME280;20918;51.138;17.370;2023-06-26T00:32:43;100281.80;;;13.74;74.86
34696;BME280;20918;51.138;17.370;2023-06-26T00:35:44;100275.70;;;13.73;74.63
34696;BME280;20918;51.138;17.370;2023-06-26T00:38:47;100272.19;;;13.68;74.76
34696;BME280;20918;51.138;17.370;2023-06-26T00:41:48;100273.61;;;13.62;74.98
34696;BME280;20918;51.138;17.370;2023-06-26T00:44:48;100269.67;;;13.56;74.87
34696;BME280;20918;51.138;17.370;2023-06-26T00:47:49;100269.98;;;13.55;75.21
34696;BME280;20918;51.138;17.370;2023-06-26T00:50:51;100265.28;;;13.56;75.23
34696;BME280;20918;51.138;17.370;2023-06-26T00:53:51;100262.98;;;13.57;75.10
34696;BME280;20918;51.138;17.370;2023-06-26T00:56:52;100264.54;;;13.58;75.28
34696;BME280;20918;51.138;17.370;2023-06-26T00:59:53;100262.80;;;13.57;75.42
34696;BME280;20918;51.138;17.370;2023-06-26T01:03:05;100260.15;;;13.56;75.37
34696;BME280;20918;51.138;17.370;2023-06-26T01:06:06;100260.25;;;13.49;75.77
34696;BME280;20918;51.138;17.370;2023-06-26T01:09:08;100258.27;;;13.45;75.85
34696;BME280;20918;51.138;17.370;2023-06-26T01:12:12;100258.48;;;13.40;75.69
34696;BME280;20918;51.138;17.370;2023-06-26T01:15:13;100257.65;;;13.35;75.69
34696;BME280;20918;51.138;17.370;2023-06-26T01:18:13;100261.40;;;13.30;75.69
34696;BME280;20918;51.138;17.370;2023-06-26T01:21:16;100259.95;;;13.29;76.04
34696;BME280;20918;51.138;17.370;2023-06-26T01:24:18;100265.86;;;13.27;75.99
34696;BME280;20918;51.138;17.370;2023-06-26T01:27:41;100262.09;;;13.24;76.27
34696;BME280;20918;51.138;17.370;2023-06-26T01:30:53;100258.77;;;13.21;76.55
34696;BME280;20918;51.138;17.370;2023-06-26T01:33:59;100258.58;;;13.16;76.48
34696;BME280;20918;51.138;17.370;2023-06-26T01:37:02;100257.95;;;13.11;76.48
34696;BME280;20918;51.138;17.370;2023-06-26T01:40:15;100255.91;;;13.12;76.40
34696;BME280;20918;51.138;17.370;2023-06-26T01:50:02;100245.20;;;13.06;76.24
34696;BME280;20918;51.138;17.370;2023-06-26T01:53:12;100238.10;;;13.03;76.20
34696;BME280;20918;51.138;17.370;2023-06-26T01:56:16;100237.22;;;12.96;76.42
34696;BME280;20918;51.138;17.370;2023-06-26T01:59:41;100238.66;;;12.92;76.52
34696;BME280;20918;51.138;17.370;2023-06-26T02:02:41;100238.87;;;12.92;76.38
34696;BME280;20918;51.138;17.370;2023-06-26T02:06:10;100239.84;;;12.87;76.78
34696;BME280;20918;51.138;17.370;2023-06-26T02:09:23;100238.58;;;12.82;77.45
34696;BME280;20918;51.138;17.370;2023-06-26T02:12:24;100235.21;;;12.77;77.96
34696;BME280;20918;51.138;17.370;2023-06-26T02:15:25;100232.49;;;12.72;77.90
34696;BME280;20918;51.138;17.370;2023-06-26T02:18:28;100232.00;;;12.71;77.72
34696;BME280;20918;51.138;17.370;2023-06-26T02:21:29;100230.43;;;12.71;77.79
34696;BME280;20918;51.138;17.370;2023-06-26T02:24:30;100231.15;;;12.68;78.04
34696;BME280;20918;51.138;17.370;2023-06-26T02:27:34;100233.84;;;12.65;78.30
34696;BME280;20918;51.138;17.370;2023-06-26T02:30:37;100234.61;;;12.64;78.22
34696;BME280;20918;51.138;17.370;2023-06-26T02:33:43;100233.88;;;12.64;78.04
34696;BME280;20918;51.138;17.370;2023-06-26T02:36:51;100236.48;;;12.59;77.84
34696;BME280;20918;51.138;17.370;2023-06-26T02:39:58;100234.17;;;12.55;78.06
34696;BME280;20918;51.138;17.370;2023-06-26T02:42:59;100235.13;;;12.58;78.23
34696;BME280;20918;51.138;17.370;2023-06-26T02:46:01;100234.75;;;12.59;78.28
34696;BME280;20918;51.138;17.370;2023-06-26T02:49:05;100233.98;;;12.59;78.33
34696;BME280;20918;51.138;17.370;2023-06-26T02:52:06;100235.35;;;12.58;78.44
34696;BME280;20918;51.138;17.370;2023-06-26T02:55:13;100237.91;;;12.59;78.36
34696;BME280;20918;51.138;17.370;2023-06-26T02:58:15;100239.69;;;12.59;78.53
34696;BME280;20918;51.138;17.370;2023-06-26T03:01:18;100238.77;;;12.61;78.54
34696;BME280;20918;51.138;17.370;2023-06-26T03:04:26;100238.05;;;12.64;78.73
34696;BME280;20918;51.138;17.370;2023-06-26T03:07:34;100235.92;;;12.68;78.69
34696;BME280;20918;51.138;17.370;2023-06-26T03:10:35;100234.98;;;12.72;78.68
34696;BME280;20918;51.138;17.370;2023-06-26T03:14:00;100237.64;;;12.78;79.03
34696;BME280;20918;51.138;17.370;2023-06-26T03:17:04;100237.58;;;12.86;79.26
34696;BME280;20918;51.138;17.370;2023-06-26T03:20:07;100235.09;;;12.96;79.46
34696;BME280;20918;51.138;17.370;2023-06-26T03:23:22;100235.89;;;13.13;79.60
34696;BME280;20918;51.138;17.370;2023-06-26T03:26:40;100235.80;;;13.32;79.77
34696;BME280;20918;51.138;17.370;2023-06-26T03:30:01;100236.17;;;13.60;79.38
34696;BME280;20918;51.138;17.370;2023-06-26T03:33:07;100235.17;;;13.83;78.92
34696;BME280;20918;51.138;17.370;2023-06-26T03:36:37;100226.45;;;14.07;78.73
34696;BME280;20918;51.138;17.370;2023-06-26T03:39:53;100226.11;;;14.41;78.81
34696;BME280;20918;51.138;17.370;2023-06-26T03:42:55;100226.02;;;14.78;78.69
34696;BME280;20918;51.138;17.370;2023-06-26T03:46:03;100226.30;;;15.18;78.21
34696;BME280;20918;51.138;17.370;2023-06-26T03:49:04;100224.23;;;15.50;77.68
34696;BME280;20918;51.138;17.370;2023-06-26T03:55:25;100213.48;;;16.16;77.03
34696;BME280;20918;51.138;17.370;2023-06-26T03:58:28;100210.86;;;16.52;76.70
34696;BME280;20918;51.138;17.370;2023-06-26T04:01:49;100217.03;;;16.97;76.52
34696;BME280;20918;51.138;17.370;2023-06-26T04:04:50;100212.45;;;17.49;76.03
34696;BME280;20918;51.138;17.370;2023-06-26T04:08:34;100211.83;;;17.88;75.56
34696;BME280;20918;51.138;17.370;2023-06-26T04:11:34;100212.65;;;18.50;75.10
34696;BME280;20918;51.138;17.370;2023-06-26T04:15:08;100215.03;;;19.10;74.40
34696;BME280;20918;51.138;17.370;2023-06-26T04:18:12;100213.08;;;19.48;73.10
34696;BME280;20918;51.138;17.370;2023-06-26T04:21:42;100208.74;;;19.71;72.66
34696;BME280;20918;51.138;17.370;2023-06-26T04:24:47;100203.80;;;20.10;72.23
34696;BME280;20918;51.138;17.370;2023-06-26T04:32:12;100201.44;;;20.99;71.09
34696;BME280;20918;51.138;17.370;2023-06-26T04:35:42;100199.89;;;21.58;70.62
34696;BME280;20918;51.138;17.370;2023-06-26T04:38:45;100199.11;;;22.12;69.81
34696;BME280;20918;51.138;17.370;2023-06-26T04:42:24;100205.31;;;22.64;68.87
34696;BME280;20918;51.138;17.370;2023-06-26T04:45:31;100205.05;;;23.09;67.86
34696;BME280;20918;51.138;17.370;2023-06-26T04:48:38;100209.39;;;23.42;67.03
34696;BME280;20918;51.138;17.370;2023-06-26T04:51:42;100213.83;;;23.73;66.37
34696;BME280;20918;51.138;17.370;2023-06-26T04:55:09;100213.98;;;23.99;65.35
34696;BME280;20918;51.138;17.370;2023-06-26T04:58:34;100213.14;;;24.14;64.35
34696;BME280;20918;51.138;17.370;2023-06-26T05:01:40;100209.73;;;24.20;63.82
34696;BME280;20918;51.138;17.370;2023-06-26T05:04:41;100205.67;;;24.40;63.43
34696;BME280;20918;51.138;17.370;2023-06-26T05:07:43;100201.69;;;24.46;62.84
34696;BME280;20918;51.138;17.370;2023-06-26T05:10:46;100200.63;;;24.62;62.41
34696;BME280;20918;51.138;17.370;2023-06-26T05:14:02;100199.48;;;24.74;61.90
34696;BME280;20918;51.138;17.370;2023-06-26T05:17:24;100201.48;;;24.92;61.36
34696;BME280;20918;51.138;17.370;2023-06-26T05:20:54;100199.30;;;25.26;61.16
34696;BME280;20918;51.138;17.370;2023-06-26T05:23:56;100197.58;;;25.69;60.03
34696;BME280;20918;51.138;17.370;2023-06-26T05:27:00;100195.02;;;25.90;59.70
34696;BME280;20918;51.138;17.370;2023-06-26T05:30:24;100193.65;;;26.17;58.95
34696;BME280;20918;51.138;17.370;2023-06-26T05:33:26;100192.68;;;26.49;58.39
34696;BME280;20918;51.138;17.370;2023-06-26T05:36:51;100189.29;;;26.77;57.77
34696;BME280;20918;51.138;17.370;2023-06-26T05:40:12;100187.96;;;27.01;56.83
34696;BME280;20918;51.138;17.370;2023-06-26T05:43:49;100189.38;;;27.22;56.40
34696;BME280;20918;51.138;17.370;2023-06-26T05:46:55;100184.73;;;27.32;55.75
34696;BME280;20918;51.138;17.370;2023-06-26T05:49:59;100184.55;;;27.51;55.60
34696;BME280;20918;51.138;17.370;2023-06-26T05:53:06;100180.55;;;27.76;54.78
34696;BME280;20918;51.138;17.370;2023-06-26T05:56:07;100182.29;;;28.03;54.66
34696;BME280;20918;51.138;17.370;2023-06-26T05:59:18;100185.05;;;28.33;54.11
34696;BME280;20918;51.138;17.370;2023-06-26T06:02:45;100183.05;;;28.49;53.41
34696;BME280;20918;51.138;17.370;2023-06-26T06:05:47;100176.98;;;28.60;53.05
34696;BME280;20918;51.138;17.370;2023-06-26T06:09:11;100174.39;;;28.76;52.76
34696;BME280;20918;51.138;17.370;2023-06-26T06:12:38;100173.65;;;28.98;51.96
34696;BME280;20918;51.138;17.370;2023-06-26T06:16:02;100175.54;;;29.28;51.60
34696;BME280;20918;51.138;17.370;2023-06-26T06:22:29;100169.33;;;29.36;50.46
34696;BME280;20918;51.138;17.370;2023-06-26T06:26:07;100169.09;;;29.43;49.88
34696;BME280;20918;51.138;17.370;2023-06-26T06:29:16;100168.06;;;29.70;49.83
34696;BME280;20918;51.138;17.370;2023-06-26T06:32:25;100168.83;;;29.96;49.37
34696;BME280;20918;51.138;17.370;2023-06-26T06:35:41;100166.30;;;30.25;49.11
34696;BME280;20918;51.138;17.370;2023-06-26T06:38:50;100171.38;;;30.48;48.43
34696;BME280;20918;51.138;17.370;2023-06-26T06:45:21;100171.09;;;30.82;47.60
34696;BME280;20918;51.138;17.370;2023-06-26T06:48:57;100171.79;;;31.11;47.13
34696;BME280;20918;51.138;17.370;2023-06-26T06:52:29;100168.59;;;31.32;46.38
34696;BME280;20918;51.138;17.370;2023-06-26T06:55:36;100171.52;;;31.41;46.28
34696;BME280;20918;51.138;17.370;2023-06-26T06:58:50;100170.29;;;31.48;45.94
34696;BME280;20918;51.138;17.370;2023-06-26T07:02:10;100173.54;;;31.50;45.75
34696;BME280;20918;51.138;17.370;2023-06-26T07:05:11;100172.89;;;31.49;45.21
34696;BME280;20918;51.138;17.370;2023-06-26T07:08:25;100166.70;;;31.32;45.16
34696;BME280;20918;51.138;17.370;2023-06-26T07:15:40;100165.15;;;31.23;45.00
34696;BME280;20918;51.138;17.370;2023-06-26T07:18:59;100164.36;;;31.21;45.01
34696;BME280;20918;51.138;17.370;2023-06-26T07:22:16;100166.16;;;31.31;44.51
34696;BME280;20918;51.138;17.370;2023-06-26T07:25:28;100162.48;;;31.02;44.28
34696;BME280;20918;51.138;17.370;2023-06-26T07:28:34;100162.07;;;30.88;44.21
34696;BME280;20918;51.138;17.370;2023-06-26T07:35:09;100157.96;;;31.07;44.51
34696;BME280;20918;51.138;17.370;2023-06-26T07:38:45;100157.35;;;31.09;44.24
34696;BME280;20918;51.138;17.370;2023-06-26T07:42:07;100152.23;;;31.16;43.97
34696;BME280;20918;51.138;17.370;2023-06-26T07:49:01;100149.00;;;31.56;43.97
34696;BME280;20918;51.138;17.370;2023-06-26T07:52:12;100152.52;;;31.90;43.23
34696;BME280;20918;51.138;17.370;2023-06-26T07:55:33;100152.95;;;32.12;42.70
34696;BME280;20918;51.138;17.370;2023-06-26T07:58:37;100153.69;;;31.97;42.35
34696;BME280;20918;51.138;17.370;2023-06-26T08:01:44;100152.76;;;31.89;42.27
34696;BME280;20918;51.138;17.370;2023-06-26T08:04:49;100153.52;;;32.00;42.26
34696;BME280;20918;51.138;17.370;2023-06-26T08:08:05;100153.17;;;32.12;41.54
34696;BME280;20918;51.138;17.370;2023-06-26T08:11:07;100154.67;;;32.09;40.86
34696;BME280;20918;51.138;17.370;2023-06-26T08:14:16;100152.73;;;32.12;40.83
34696;BME280;20918;51.138;17.370;2023-06-26T08:17:23;100154.34;;;32.16;40.79
34696;BME280;20918;51.138;17.370;2023-06-26T08:20:24;100150.58;;;32.27;40.32
34696;BME280;20918;51.138;17.370;2023-06-26T08:23:25;100151.77;;;32.24;39.88
34696;BME280;20918;51.138;17.370;2023-06-26T08:26:29;100149.27;;;32.30;39.89
34696;BME280;20918;51.138;17.370;2023-06-26T08:29:40;100151.03;;;32.43;39.50
34696;BME280;20918;51.138;17.370;2023-06-26T08:32:43;100152.41;;;32.42;38.64
34696;BME280;20918;51.138;17.370;2023-06-26T08:35:44;100148.41;;;32.33;38.51
34696;BME280;20918;51.138;17.370;2023-06-26T08:38:48;100146.17;;;32.14;38.64
34696;BME280;20918;51.138;17.370;2023-06-26T08:41:49;100146.30;;;32.04;38.76
34696;BME280;20918;51.138;17.370;2023-06-26T08:45:13;100140.83;;;32.05;39.05
34696;BME280;20918;51.138;17.370;2023-06-26T08:48:14;100136.81;;;32.17;38.94
34696;BME280;20918;51.138;17.370;2023-06-26T08:51:33;100139.64;;;32.35;38.38
34696;BME280;20918;51.138;17.370;2023-06-26T08:54:40;100140.48;;;32.49;37.50
34696;BME280;20918;51.138;17.370;2023-06-26T08:57:54;100127.77;;;32.77;36.74
34696;BME280;20918;51.138;17.370;2023-06-26T09:01:06;100125.22;;;32.88;36.49
34696;BME280;20918;51.138;17.370;2023-06-26T09:04:10;100117.89;;;32.95;35.82
34696;BME280;20918;51.138;17.370;2023-06-26T09:07:15;100120.10;;;32.93;35.07
34696;BME280;20918;51.138;17.370;2023-06-26T09:10:38;100117.67;;;32.68;35.36
34696;BME280;20918;51.138;17.370;2023-06-26T09:13:42;100119.82;;;32.46;35.85
34696;BME280;20918;51.138;17.370;2023-06-26T09:16:47;100119.58;;;32.40;35.78
34696;BME280;20918;51.138;17.370;2023-06-26T09:19:50;100117.31;;;32.22;36.01
34696;BME280;20918;51.138;17.370;2023-06-26T09:22:52;100119.55;;;32.11;36.03
34696;BME280;20918;51.138;17.370;2023-06-26T09:25:53;100120.23;;;31.91;35.63
34696;BME280;20918;51.138;17.370;2023-06-26T09:28:55;100120.23;;;31.66;35.60
34696;BME280;20918;51.138;17.370;2023-06-26T09:31:56;100117.84;;;31.62;35.55
34696;BME280;20918;51.138;17.370;2023-06-26T09:34:58;100111.71;;;31.74;35.64
34696;BME280;20918;51.138;17.370;2023-06-26T09:41:41;100108.95;;;31.85;35.50
34696;BME280;20918;51.138;17.370;2023-06-26T09:44:46;100110.08;;;31.78;35.51
34696;BME280;20918;51.138;17.370;2023-06-26T09:47:47;100103.15;;;31.84;35.34
34696;BME280;20918;51.138;17.370;2023-06-26T09:50:56;100105.02;;;31.79;35.71
34696;BME280;20918;51.138;17.370;2023-06-26T09:54:03;100101.69;;;32.03;35.81
34696;BME280;20918;51.138;17.370;2023-06-26T09:57:17;100093.84;;;32.30;35.32
34696;BME280;20918;51.138;17.370;2023-06-26T10:00:22;100090.97;;;32.47;34.70
34696;BME280;20918;51.138;17.370;2023-06-26T10:03:22;100086.05;;;32.51;34.51
34696;BME280;20918;51.138;17.370;2023-06-26T10:06:46;100085.48;;;32.54;34.39
34696;BME280;20918;51.138;17.370;2023-06-26T10:09:55;100084.77;;;32.47;34.05
34696;BME280;20918;51.138;17.370;2023-06-26T10:13:06;100084.09;;;32.41;34.17
34696;BME280;20918;51.138;17.370;2023-06-26T10:16:10;100080.39;;;32.39;34.07
34696;BME280;20918;51.138;17.370;2023-06-26T10:19:13;100076.77;;;32.17;34.08
34696;BME280;20918;51.138;17.370;2023-06-26T10:22:27;100075.68;;;31.71;34.21
34696;BME280;20918;51.138;17.370;2023-06-26T10:25:30;100073.02;;;31.73;34.12
34696;BME280;20918;51.138;17.370;2023-06-26T10:28:33;100076.11;;;31.72;33.89
34696;BME280;20918;51.138;17.370;2023-06-26T10:31:42;100070.30;;;31.61;34.05
34696;BME280;20918;51.138;17.370;2023-06-26T10:35:06;100061.94;;;31.39;34.36
34696;BME280;20918;51.138;17.370;2023-06-26T10:38:11;100066.38;;;31.21;34.86
34696;BME280;20918;51.138;17.370;2023-06-26T10:44:27;100065.54;;;31.19;34.23
34696;BME280;20918;51.138;17.370;2023-06-26T10:47:32;100061.48;;;31.27;34.08
34696;BME280;20918;51.138;17.370;2023-06-26T10:50:35;100058.00;;;31.40;34.09
34696;BME280;20918;51.138;17.370;2023-06-26T10:53:40;100053.58;;;31.59;34.10
34696;BME280;20918;51.138;17.370;2023-06-26T10:56:55;100055.84;;;31.60;34.29
34696;BME280;20918;51.138;17.370;2023-06-26T11:00:10;100053.08;;;31.52;34.55
34696;BME280;20918;51.138;17.370;2023-06-26T11:03:24;100057.13;;;31.52;34.15
34696;BME280;20918;51.138;17.370;2023-06-26T11:06:46;100052.52;;;31.50;33.93
34696;BME280;20918;51.138;17.370;2023-06-26T11:09:59;100051.86;;;31.45;33.43
34696;BME280;20918;51.138;17.370;2023-06-26T11:13:10;100051.15;;;31.38;33.82
34696;BME280;20918;51.138;17.370;2023-06-26T11:16:25;100049.98;;;31.35;33.22
34696;BME280;20918;51.138;17.370;2023-06-26T11:19:42;100045.04;;;31.08;32.96
34696;BME280;20918;51.138;17.370;2023-06-26T11:22:44;100046.15;;;30.96;33.70
34696;BME280;20918;51.138;17.370;2023-06-26T11:25:48;100042.20;;;31.14;34.35
34696;BME280;20918;51.138;17.370;2023-06-26T11:28:54;100037.14;;;31.12;34.35
34696;BME280;20918;51.138;17.370;2023-06-26T11:32:02;100030.80;;;31.06;34.57
34696;BME280;20918;51.138;17.370;2023-06-26T11:35:22;100030.24;;;31.00;34.49
34696;BME280;20918;51.138;17.370;2023-06-26T11:38:37;100026.02;;;31.03;34.20
34696;BME280;20918;51.138;17.370;2023-06-26T11:42:10;100022.29;;;30.98;34.17
34696;BME280;20918;51.138;17.370;2023-06-26T11:45:12;100024.96;;;31.09;34.74
34696;BME280;20918;51.138;17.370;2023-06-26T11:48:13;100023.32;;;31.25;34.54
34696;BME280;20918;51.138;17.370;2023-06-26T11:51:22;100018.61;;;31.09;33.84
34696;BME280;20918;51.138;17.370;2023-06-26T11:54:27;100007.92;;;30.93;34.01
34696;BME280;20918;51.138;17.370;2023-06-26T11:57:39;100009.14;;;31.03;34.06
34696;BME280;20918;51.138;17.370;2023-06-26T12:00:41;100003.54;;;31.01;34.09
34696;BME280;20918;51.138;17.370;2023-06-26T12:03:44;100004.34;;;31.00;34.55
34696;BME280;20918;51.138;17.370;2023-06-26T12:06:47;100004.01;;;31.00;34.30
34696;BME280;20918;51.138;17.370;2023-06-26T12:09:52;100004.23;;;31.00;34.04
34696;BME280;20918;51.138;17.370;2023-06-26T12:12:54;100002.02;;;31.09;34.44
34696;BME280;20918;51.138;17.370;2023-06-26T12:15:59;99994.52;;;31.06;33.85
34696;BME280;20918;51.138;17.370;2023-06-26T12:19:01;99989.53;;;30.83;33.74
34696;BME280;20918;51.138;17.370;2023-06-26T12:22:06;99982.89;;;30.73;34.34
34696;BME280;20918;51.138;17.370;2023-06-26T12:25:07;99978.23;;;30.65;34.55
34696;BME280;20918;51.138;17.370;2023-06-26T12:28:20;99979.79;;;30.66;35.06
34696;BME280;20918;51.138;17.370;2023-06-26T12:31:21;99979.73;;;30.77;34.26
34696;BME280;20918;51.138;17.370;2023-06-26T12:34:34;99976.96;;;30.63;34.58
34696;BME280;20918;51.138;17.370;2023-06-26T12:37:38;99976.52;;;30.63;34.74
34696;BME280;20918;51.138;17.370;2023-06-26T12:40:45;99975.77;;;30.65;35.04
34696;BME280;20918;51.138;17.370;2023-06-26T12:43:49;99970.40;;;30.71;35.13
34696;BME280;20918;51.138;17.370;2023-06-26T12:46:54;99969.42;;;30.78;35.23
34696;BME280;20918;51.138;17.370;2023-06-26T12:49:55;99968.98;;;30.78;35.36
34696;BME280;20918;51.138;17.370;2023-06-26T12:53:01;99957.24;;;30.73;34.45
34696;BME280;20918;51.138;17.370;2023-06-26T12:56:04;99955.63;;;30.67;34.54
34696;BME280;20918;51.138;17.370;2023-06-26T12:59:05;99954.22;;;30.69;34.39
34696;BME280;20918;51.138;17.370;2023-06-26T13:02:09;99951.03;;;30.67;34.73
34696;BME280;20918;51.138;17.370;2023-06-26T13:05:14;99943.80;;;30.77;35.02
34696;BME280;20918;51.138;17.370;2023-06-26T13:08:16;99943.73;;;30.85;35.15
34696;BME280;20918;51.138;17.370;2023-06-26T13:11:20;99942.77;;;30.80;34.99
34696;BME280;20918;51.138;17.370;2023-06-26T13:14:21;99938.95;;;30.73;34.88
34696;BME280;20918;51.138;17.370;2023-06-26T13:17:31;99937.42;;;30.71;34.84
34696;BME280;20918;51.138;17.370;2023-06-26T13:20:32;99935.66;;;30.69;34.69
34696;BME280;20918;51.138;17.370;2023-06-26T13:23:33;99929.48;;;30.71;34.63
34696;BME280;20918;51.138;17.370;2023-06-26T13:26:35;99929.23;;;30.65;34.19
34696;BME280;20918;51.138;17.370;2023-06-26T13:29:36;99923.13;;;30.57;34.92
34696;BME280;20918;51.138;17.370;2023-06-26T13:32:40;99920.17;;;30.47;34.89
34696;BME280;20918;51.138;17.370;2023-06-26T13:35:49;99916.42;;;30.40;35.45
34696;BME280;20918;51.138;17.370;2023-06-26T13:38:50;99917.15;;;30.45;35.43
34696;BME280;20918;51.138;17.370;2023-06-26T13:41:55;99914.08;;;30.48;35.45
34696;BME280;20918;51.138;17.370;2023-06-26T13:44:56;99906.27;;;30.47;35.42
34696;BME280;20918;51.138;17.370;2023-06-26T13:48:00;99896.61;;;30.39;35.64
34696;BME280;20918;51.138;17.370;2023-06-26T13:51:04;99893.69;;;30.35;35.98
34696;BME280;20918;51.138;17.370;2023-06-26T13:54:05;99892.20;;;30.25;35.57
34696;BME280;20918;51.138;17.370;2023-06-26T13:57:09;99891.71;;;30.20;35.69
34696;BME280;20918;51.138;17.370;2023-06-26T14:00:14;99886.36;;;30.23;35.69
34696;BME280;20918;51.138;17.370;2023-06-26T14:03:20;99878.59;;;30.24;35.53
34696;BME280;20918;51.138;17.370;2023-06-26T14:06:24;99880.43;;;30.17;35.65
34696;BME280;20918;51.138;17.370;2023-06-26T14:09:25;99873.08;;;30.10;35.37
34696;BME280;20918;51.138;17.370;2023-06-26T14:12:26;99870.46;;;29.97;35.65
34696;BME280;20918;51.138;17.370;2023-06-26T14:15:27;99867.44;;;29.81;35.78
34696;BME280;20918;51.138;17.370;2023-06-26T14:18:30;99865.38;;;29.82;36.19
34696;BME280;20918;51.138;17.370;2023-06-26T14:21:35;99862.27;;;29.88;36.59
34696;BME280;20918;51.138;17.370;2023-06-26T14:24:41;99858.58;;;29.92;36.39
34696;BME280;20918;51.138;17.370;2023-06-26T14:27:42;99849.90;;;29.88;36.24
34696;BME280;20918;51.138;17.370;2023-06-26T14:30:46;99843.00;;;29.88;36.14
34696;BME280;20918;51.138;17.370;2023-06-26T14:34:10;99836.89;;;29.88;36.43
34696;BME280;20918;51.138;17.370;2023-06-26T14:37:40;99831.63;;;29.91;36.20
34696;BME280;20918;51.138;17.370;2023-06-26T14:40:42;99825.66;;;29.91;36.34
34696;BME280;20918;51.138;17.370;2023-06-26T14:43:43;99820.13;;;29.86;36.61
34696;BME280;20918;51.138;17.370;2023-06-26T14:46:47;99813.38;;;29.87;37.02
34696;BME280;20918;51.138;17.370;2023-06-26T14:49:48;99811.66;;;29.77;36.99
34696;BME280;20918;51.138;17.370;2023-06-26T14:52:52;99807.16;;;29.68;37.10
34696;BME280;20918;51.138;17.370;2023-06-26T14:56:25;99807.31;;;29.72;37.01
34696;BME280;20918;51.138;17.370;2023-06-26T14:59:28;99802.85;;;29.72;37.13
34696;BME280;20918;51.138;17.370;2023-06-26T15:02:32;99795.38;;;29.61;37.28
34696;BME280;20918;51.138;17.370;2023-06-26T15:05:33;99793.59;;;29.56;37.41
34696;BME280;20918;51.138;17.370;2023-06-26T15:08:45;99792.04;;;29.51;37.38
34696;BME280;20918;51.138;17.370;2023-06-26T15:11:48;99783.12;;;29.42;37.39
34696;BME280;20918;51.138;17.370;2023-06-26T15:15:01;99777.07;;;29.38;37.41
34696;BME280;20918;51.138;17.370;2023-06-26T15:18:17;99771.79;;;29.34;37.07
34696;BME280;20918;51.138;17.370;2023-06-26T15:21:18;99764.44;;;29.23;37.52
34696;BME280;20918;51.138;17.370;2023-06-26T15:24:22;99766.34;;;29.20;37.69
34696;BME280;20918;51.138;17.370;2023-06-26T15:30:41;99762.05;;;29.03;37.83
34696;BME280;20918;51.138;17.370;2023-06-26T15:33:51;99754.60;;;28.91;38.02
34696;BME280;20918;51.138;17.370;2023-06-26T15:36:52;99758.17;;;28.86;38.35
34696;BME280;20918;51.138;17.370;2023-06-26T15:39:53;99754.91;;;28.86;38.49
34696;BME280;20918;51.138;17.370;2023-06-26T15:42:54;99752.11;;;28.82;38.38
34696;BME280;20918;51.138;17.370;2023-06-26T15:45:55;99745.62;;;28.75;38.29
34696;BME280;20918;51.138;17.370;2023-06-26T15:48:56;99739.16;;;28.70;38.46
34696;BME280;20918;51.138;17.370;2023-06-26T15:51:57;99741.98;;;28.70;38.81
34696;BME280;20918;51.138;17.370;2023-06-26T15:55:01;99738.55;;;28.71;38.91
34696;BME280;20918;51.138;17.370;2023-06-26T15:58:01;99734.77;;;28.68;38.87
34696;BME280;20918;51.138;17.370;2023-06-26T16:01:14;99732.73;;;28.65;39.15
34696;BME280;20918;51.138;17.370;2023-06-26T16:04:18;99728.70;;;28.57;39.22
34696;BME280;20918;51.138;17.370;2023-06-26T16:07:20;99721.29;;;28.44;39.30
34696;BME280;20918;51.138;17.370;2023-06-26T16:10:21;99719.16;;;28.31;39.54
34696;BME280;20918;51.138;17.370;2023-06-26T16:13:22;99722.38;;;28.23;39.83
34696;BME280;20918;51.138;17.370;2023-06-26T16:16:43;99718.36;;;28.23;40.18
34696;BME280;20918;51.138;17.370;2023-06-26T16:19:47;99715.47;;;28.22;40.24
34696;BME280;20918;51.138;17.370;2023-06-26T16:22:48;99719.60;;;28.24;40.42
34696;BME280;20918;51.138;17.370;2023-06-26T16:25:49;99717.08;;;28.28;40.52
34696;BME280;20918;51.138;17.370;2023-06-26T16:28:50;99714.33;;;28.30;40.57
34696;BME280;20918;51.138;17.370;2023-06-26T16:31:54;99710.65;;;28.31;40.73
34696;BME280;20918;51.138;17.370;2023-06-26T16:34:55;99711.16;;;28.29;40.65
34696;BME280;20918;51.138;17.370;2023-06-26T16:37:56;99711.86;;;28.23;41.06
34696;BME280;20918;51.138;17.370;2023-06-26T16:40:57;99706.02;;;28.20;41.04
34696;BME280;20918;51.138;17.370;2023-06-26T16:44:00;99700.89;;;28.15;41.17
34696;BME280;20918;51.138;17.370;2023-06-26T16:47:04;99700.34;;;28.11;41.32
34696;BME280;20918;51.138;17.370;2023-06-26T16:50:09;99698.81;;;28.08;41.26
34696;BME280;20918;51.138;17.370;2023-06-26T16:53:13;99695.17;;;28.03;41.18
34696;BME280;20918;51.138;17.370;2023-06-26T16:56:19;99689.36;;;28.01;41.36